createdAt,value
2023-02-24T00:02:05.717Z,7.77
2023-02-24T00:04:38.348Z,7.87
2023-02-24T00:07:10.667Z,7.87
2023-02-24T00:09:39.122Z,7.99
2023-02-24T00:12:13.112Z,8.03
2023-02-24T00:14:43.467Z,8.02
2023-02-24T00:17:15.129Z,8.04
2023-02-24T00:19:42.465Z,7.99
2023-02-24T00:22:09.829Z,7.83
2023-02-24T00:24:37.557Z,8.02
2023-02-24T00:27:12.015Z,8.16
2023-02-24T00:29:41.891Z,8.29
2023-02-24T00:32:12.620Z,8.25
2023-02-24T00:34:40.563Z,8.06
2023-02-24T00:37:07.519Z,7.98
2023-02-24T00:39:35.918Z,7.86
2023-02-24T00:42:06.229Z,7.75
2023-02-24T00:44:43.841Z,7.82
2023-02-24T00:47:12.252Z,8.04
2023-02-24T00:49:44.507Z,7.94
2023-02-24T00:52:21.735Z,7.69
2023-02-24T00:54:50.692Z,7.67
2023-02-24T00:57:18.665Z,7.64
2023-02-24T00:59:48.560Z,7.59
2023-02-24T01:02:16.180Z,7.58
2023-02-24T01:04:44.774Z,7.57
2023-02-24T01:07:13.979Z,7.58
2023-02-24T01:09:41.917Z,7.55
2023-02-24T01:12:30.470Z,7.58
2023-02-24T01:14:57.697Z,7.69
2023-02-24T01:17:25.451Z,7.87
2023-02-24T01:19:52.812Z,8.00
2023-02-24T01:22:21.344Z,8.00
2023-02-24T01:24:49.008Z,7.97
2023-02-24T01:27:21.235Z,7.93
2023-02-24T01:29:48.829Z,7.93
2023-02-24T01:32:20.339Z,7.88
2023-02-24T01:34:51.495Z,8.01
2023-02-24T01:37:19.494Z,8.04
2023-02-24T01:39:47.708Z,8.24
2023-02-24T01:42:20.084Z,8.25
2023-02-24T01:44:47.649Z,8.04
2023-02-24T01:47:20.875Z,7.92
2023-02-24T01:49:52.261Z,7.85
2023-02-24T01:52:26.994Z,7.88
2023-02-24T01:54:58.537Z,7.97
2023-02-24T01:57:31.253Z,8.22
2023-02-24T02:00:11.170Z,8.23
2023-02-24T02:02:46.426Z,8.05
2023-02-24T02:05:14.793Z,7.98
2023-02-24T02:07:43.522Z,7.99
2023-02-24T02:10:11.671Z,8.00
2023-02-24T02:12:44.189Z,8.08
2023-02-24T02:15:15.456Z,8.10
2023-02-24T02:18:08.168Z,8.06
2023-02-24T02:20:55.794Z,8.09
2023-02-24T02:24:04.609Z,8.14
2023-02-24T02:27:20.955Z,7.88
2023-02-24T02:30:19.608Z,7.86
2023-02-24T02:33:01.887Z,7.79
2023-02-24T02:35:46.392Z,7.88
2023-02-24T02:38:38.045Z,7.99
2023-02-24T02:41:21.711Z,7.87
2023-02-24T02:44:12.059Z,7.88
2023-02-24T02:46:47.457Z,7.74
2023-02-24T02:49:20.811Z,7.76
2023-02-24T02:51:56.820Z,7.93
2023-02-24T02:54:37.061Z,7.92
2023-02-24T02:57:16.838Z,7.75
2023-02-24T02:59:53.604Z,7.68
2023-02-24T03:02:29.517Z,7.57
2023-02-24T03:05:01.941Z,7.48
2023-02-24T03:07:37.544Z,7.44
2023-02-24T03:10:20.887Z,7.43
2023-02-24T03:12:54.137Z,7.53
2023-02-24T03:15:24.134Z,7.54
2023-02-24T03:18:10.160Z,7.63
2023-02-24T03:20:43.133Z,7.68
2023-02-24T03:23:26.140Z,7.67
2023-02-24T03:26:21.944Z,7.78
2023-02-24T03:29:23.906Z,7.79
2023-02-24T03:32:10.138Z,7.80
2023-02-24T03:34:55.632Z,7.89
2023-02-24T03:37:28.138Z,7.97
2023-02-24T03:40:11.580Z,7.90
2023-02-24T03:42:52.888Z,7.93
2023-02-24T03:45:23.087Z,7.97
2023-02-24T03:47:54.072Z,7.94
2023-02-24T03:50:22.180Z,7.85
2023-02-24T03:53:22.356Z,7.88
2023-02-24T03:56:23.448Z,7.98
2023-02-24T03:59:13.376Z,8.00
2023-02-24T04:02:00.926Z,8.01
2023-02-24T04:04:59.525Z,7.92
2023-02-24T04:07:52.797Z,7.99
2023-02-24T04:10:41.764Z,7.86
2023-02-24T04:13:35.212Z,7.79
2023-02-24T04:16:27.972Z,7.74
2023-02-24T04:19:03.743Z,7.82
2023-02-24T04:21:33.534Z,7.79
2023-02-24T04:24:11.478Z,7.76
2023-02-24T04:26:42.904Z,7.75
2023-02-24T04:29:17.708Z,7.83
2023-02-24T04:31:50.867Z,7.84
2023-02-24T04:34:20.173Z,7.84
2023-02-24T04:36:51.687Z,7.81
2023-02-24T04:39:21.228Z,7.85
2023-02-24T04:41:52.294Z,7.91
2023-02-24T04:44:22.873Z,7.92
2023-02-24T04:46:51.373Z,7.87
2023-02-24T04:49:19.764Z,7.87
2023-02-24T04:51:47.256Z,7.85
2023-02-24T04:54:17.614Z,7.90
2023-02-24T04:56:47.919Z,7.92
2023-02-24T04:59:15.403Z,7.87
2023-02-24T05:01:44.173Z,7.86
2023-02-24T05:04:14.022Z,7.86
2023-02-24T05:06:44.069Z,7.79
2023-02-24T05:09:19.479Z,7.68
2023-02-24T05:11:51.782Z,7.57
2023-02-24T05:14:24.946Z,7.56
2023-02-24T05:16:52.067Z,7.54
2023-02-24T05:19:39.453Z,7.64
2023-02-24T05:22:11.621Z,7.61
2023-02-24T05:24:38.618Z,7.71
2023-02-24T05:27:05.551Z,7.69
2023-02-24T05:29:34.992Z,7.64
2023-02-24T05:32:04.105Z,7.70
2023-02-24T05:34:33.233Z,7.73
2023-02-24T05:37:04.421Z,7.69
2023-02-24T05:39:31.487Z,7.66
2023-02-24T05:41:58.515Z,7.69
2023-02-24T05:44:26.829Z,7.72
2023-02-24T05:46:58.299Z,7.71
2023-02-24T05:49:31.250Z,7.70
2023-02-24T05:52:01.511Z,7.69
2023-02-24T05:54:36.626Z,7.73
2023-02-24T05:57:11.981Z,7.76
2023-02-24T05:59:44.539Z,7.77
2023-02-24T06:02:15.802Z,7.75
2023-02-24T06:04:53.855Z,7.71
2023-02-24T06:07:25.336Z,7.79
2023-02-24T06:09:57.810Z,7.78
2023-02-24T06:12:33.706Z,7.80
2023-02-24T06:15:02.281Z,7.79
2023-02-24T06:17:29.772Z,7.77
2023-02-24T06:19:56.760Z,7.79
2023-02-24T06:22:26.218Z,7.81
2023-02-24T06:24:54.763Z,7.80
2023-02-24T06:27:24.582Z,7.88
2023-02-24T06:29:54.148Z,7.83
2023-02-24T06:32:26.065Z,7.82
2023-02-24T06:34:53.979Z,7.77
2023-02-24T06:37:22.987Z,7.77
2023-02-24T06:39:50.167Z,7.74
2023-02-24T06:42:17.152Z,7.74
2023-02-24T06:44:44.111Z,7.71
2023-02-24T06:47:14.543Z,7.74
2023-02-24T06:49:42.962Z,7.75
2023-02-24T06:52:11.656Z,7.72
2023-02-24T06:54:38.835Z,7.74
2023-02-24T06:57:05.894Z,7.71
2023-02-24T06:59:33.071Z,7.69
2023-02-24T07:02:04.669Z,7.64
2023-02-24T07:04:41.944Z,7.67
2023-02-24T07:07:10.490Z,7.76
2023-02-24T07:09:37.437Z,7.86
2023-02-24T07:12:04.810Z,7.82
2023-02-24T07:14:31.880Z,7.84
2023-02-24T07:17:00.156Z,7.92
2023-02-24T07:19:30.666Z,7.91
2023-02-24T07:22:02.094Z,7.96
2023-02-24T07:24:36.070Z,7.97
2023-02-24T07:27:23.405Z,8.00
2023-02-24T07:29:53.276Z,8.00
2023-02-24T07:32:22.393Z,8.03
2023-02-24T07:34:49.465Z,8.08
2023-02-24T07:37:16.814Z,8.04
2023-02-24T07:39:43.962Z,8.05
2023-02-24T07:42:14.680Z,8.08
2023-02-24T07:44:46.573Z,8.10
2023-02-24T07:47:15.917Z,8.12
2023-02-24T07:49:43.675Z,8.08
2023-02-24T07:52:11.672Z,8.10
2023-02-24T07:54:39.228Z,8.05
2023-02-24T07:57:13.541Z,8.04
2023-02-24T07:59:47.251Z,8.04
2023-02-24T08:02:15.359Z,7.94
2023-02-24T08:04:49.909Z,8.02
2023-02-24T08:07:24.192Z,8.01
2023-02-24T08:10:10.059Z,7.95
2023-02-24T08:12:43.071Z,7.91
2023-02-24T08:15:17.759Z,7.96
2023-02-24T08:17:47.314Z,7.90
2023-02-24T08:20:14.816Z,7.90
2023-02-24T08:22:46.646Z,8.00
2023-02-24T08:25:19.032Z,8.05
2023-02-24T08:28:12.520Z,7.97
2023-02-24T08:30:45.604Z,8.09
2023-02-24T08:33:19.943Z,8.11
2023-02-24T08:35:57.983Z,8.07
2023-02-24T08:38:27.571Z,8.03
2023-02-24T08:40:55.766Z,8.13
2023-02-24T08:43:30.420Z,8.05
2023-02-24T08:46:13.405Z,7.97
2023-02-24T08:48:44.896Z,8.01
2023-02-24T08:51:23.477Z,7.96
2023-02-24T08:53:53.782Z,7.95
2023-02-24T08:56:28.545Z,7.93
2023-02-24T08:59:05.691Z,8.00
2023-02-24T09:02:04.241Z,7.91
2023-02-24T09:04:34.354Z,7.70
2023-02-24T09:07:11.810Z,7.65
2023-02-24T09:09:42.204Z,7.74
2023-02-24T09:12:21.916Z,7.77
2023-02-24T09:14:55.414Z,7.82
2023-02-24T09:17:49.640Z,7.76
2023-02-24T09:20:25.888Z,7.82
2023-02-24T09:22:57.962Z,7.82
2023-02-24T09:25:40.624Z,7.82
2023-02-24T09:28:17.984Z,7.82
2023-02-24T09:30:53.264Z,7.89
2023-02-24T09:33:51.054Z,7.94
2023-02-24T09:36:20.965Z,7.96
2023-02-24T09:39:00.760Z,7.89
2023-02-24T09:42:17.979Z,7.86
2023-02-24T09:44:52.818Z,7.86
2023-02-24T09:47:52.104Z,7.91
2023-02-24T09:50:55.551Z,7.94
2023-02-24T09:53:18.360Z,7.91
2023-02-24T09:56:00.318Z,7.89
2023-02-24T09:58:47.766Z,7.80
2023-02-24T10:01:23.734Z,7.81
2023-02-24T10:04:23.169Z,7.77
2023-02-24T10:07:22.857Z,7.74
2023-02-24T10:10:19.664Z,7.79
2023-02-24T10:13:30.108Z,7.81
2023-02-24T10:16:06.249Z,7.89
2023-02-24T10:19:01.133Z,7.87
2023-02-24T10:22:00.233Z,7.88
2023-02-24T10:24:34.370Z,8.03
2023-02-24T10:27:24.994Z,8.09
2023-02-24T10:30:11.470Z,8.15
2023-02-24T10:32:53.385Z,8.16
2023-02-24T10:35:25.932Z,8.21
2023-02-24T10:37:58.913Z,8.23
2023-02-24T10:40:43.749Z,8.10
2023-02-24T10:43:17.890Z,8.17
2023-02-24T10:45:46.882Z,8.20
2023-02-24T10:48:41.033Z,8.21
2023-02-24T10:51:20.024Z,8.24
2023-02-24T10:54:09.806Z,8.33
2023-02-24T10:56:55.384Z,8.47
2023-02-24T10:59:25.427Z,8.57
2023-02-24T11:02:24.601Z,8.64
2023-02-24T11:04:54.756Z,8.71
2023-02-24T11:07:24.952Z,8.75
2023-02-24T11:10:25.993Z,8.87
2023-02-24T11:13:13.751Z,8.90
2023-02-24T11:16:05.310Z,8.99
2023-02-24T11:18:32.780Z,9.00
2023-02-24T11:21:02.590Z,9.04
2023-02-24T11:23:37.957Z,9.10
2023-02-24T11:26:34.786Z,9.20
2023-02-24T11:29:17.456Z,9.08
2023-02-24T11:32:19.183Z,9.19
2023-02-24T11:35:17.752Z,9.41
2023-02-24T11:38:02.649Z,9.59
2023-02-24T11:40:37.644Z,9.55
2023-02-24T11:43:18.514Z,9.40
2023-02-24T11:46:02.288Z,9.27
2023-02-24T11:48:48.188Z,9.06
2023-02-24T11:51:23.736Z,9.07
2023-02-24T11:54:04.137Z,9.09
2023-02-24T11:56:38.839Z,9.26
2023-02-24T11:59:18.785Z,9.26
2023-02-24T12:02:17.077Z,9.28
2023-02-24T12:05:00.294Z,9.40
2023-02-24T12:07:50.407Z,9.51
2023-02-24T12:10:24.352Z,9.48
2023-02-24T12:13:21.418Z,9.56
2023-02-24T12:16:03.253Z,9.71
2023-02-24T12:18:42.925Z,9.85
2023-02-24T12:21:33.907Z,9.90
2023-02-24T12:24:02.249Z,10.49
2023-02-24T12:26:48.029Z,11.05
2023-02-24T12:29:57.780Z,11.42
2023-02-24T12:32:47.251Z,11.67
2023-02-24T12:35:33.608Z,11.83
2023-02-24T12:38:41.321Z,11.67
2023-02-24T12:41:23.733Z,11.63
2023-02-24T12:44:48.150Z,11.50
2023-02-24T12:47:32.949Z,11.57
2023-02-24T12:50:10.704Z,11.65
2023-02-24T12:52:55.030Z,11.61
2023-02-24T12:55:49.020Z,11.58
2023-02-24T12:58:45.982Z,11.49
2023-02-24T13:01:27.804Z,11.40
2023-02-24T13:04:45.300Z,11.39
2023-02-24T13:07:39.460Z,11.32
2023-02-24T13:10:49.547Z,11.27
2023-02-24T13:13:41.855Z,11.45
2023-02-24T13:16:12.198Z,11.50
2023-02-24T13:18:39.594Z,11.31
2023-02-24T13:21:22.769Z,11.05
2023-02-24T13:23:58.355Z,11.04
2023-02-24T13:26:28.079Z,11.12
2023-02-24T13:29:15.023Z,10.92
2023-02-24T13:31:53.150Z,10.54
2023-02-24T13:34:26.307Z,10.55
2023-02-24T13:36:53.410Z,10.48
2023-02-24T13:39:36.743Z,10.49
2023-02-24T13:42:31.198Z,10.64
2023-02-24T13:45:10.304Z,10.70
2023-02-24T13:48:23.060Z,10.66
2023-02-24T13:51:11.731Z,10.61
2023-02-24T13:54:20.221Z,10.42
2023-02-24T13:57:00.227Z,10.25
2023-02-24T14:00:10.134Z,10.15
2023-02-24T14:02:44.106Z,9.91
2023-02-24T14:05:25.085Z,9.86
2023-02-24T14:07:53.256Z,9.81
2023-02-24T14:10:30.528Z,9.94
2023-02-24T14:13:11.782Z,9.95
2023-02-24T14:15:43.380Z,10.04
2023-02-24T14:18:28.915Z,10.00
2023-02-24T14:20:58.514Z,10.06
2023-02-24T14:23:28.887Z,9.92
2023-02-24T14:26:07.399Z,9.80
2023-02-24T14:28:38.007Z,9.82
2023-02-24T14:31:15.599Z,9.68
2023-02-24T14:33:45.380Z,9.55
2023-02-24T14:36:21.437Z,9.54
2023-02-24T14:39:08.860Z,9.41
2023-02-24T14:41:36.672Z,9.34
2023-02-24T14:44:23.258Z,9.34
2023-02-24T14:46:53.974Z,9.28
2023-02-24T14:49:25.560Z,9.28
2023-02-24T14:52:03.419Z,9.25
2023-02-24T14:54:55.592Z,9.18
2023-02-24T14:57:29.194Z,9.16
2023-02-24T15:00:10.648Z,9.04
2023-02-24T15:02:44.968Z,9.07
2023-02-24T15:05:12.391Z,9.03
2023-02-24T15:07:40.219Z,9.00
2023-02-24T15:10:21.053Z,8.89
2023-02-24T15:12:54.429Z,8.88
2023-02-24T15:15:28.506Z,8.92
2023-02-24T15:18:04.258Z,8.89
2023-02-24T15:20:40.718Z,8.93
2023-02-24T15:23:29.029Z,8.89
2023-02-24T15:25:56.066Z,8.88
2023-02-24T15:28:31.259Z,8.84
2023-02-24T15:31:00.995Z,8.83
2023-02-24T15:33:45.384Z,8.91
2023-02-24T15:36:21.666Z,8.83
2023-02-24T15:38:53.774Z,8.91
2023-02-24T15:41:21.419Z,8.86
2023-02-24T15:43:52.972Z,8.76
2023-02-24T15:46:31.871Z,8.74
2023-02-24T15:49:03.150Z,8.71
2023-02-24T15:51:45.302Z,8.68
2023-02-24T15:54:30.801Z,8.69
2023-02-24T15:57:00.150Z,8.70
2023-02-24T15:59:28.334Z,8.79
2023-02-24T16:01:55.745Z,8.71
2023-02-24T16:04:23.932Z,8.68
2023-02-24T16:06:55.612Z,8.67
2023-02-24T16:09:36.626Z,8.75
2023-02-24T16:12:17.345Z,8.66
2023-02-24T16:14:45.145Z,8.66
2023-02-24T16:17:32.428Z,8.66
2023-02-24T16:20:00.271Z,8.72
2023-02-24T16:22:28.672Z,8.63
2023-02-24T16:24:58.770Z,8.63
2023-02-24T16:27:27.435Z,8.57
2023-02-24T16:29:54.457Z,8.56
2023-02-24T16:32:23.542Z,8.54
2023-02-24T16:34:51.425Z,8.58
2023-02-24T16:37:29.330Z,8.48
2023-02-24T16:39:59.023Z,8.49
2023-02-24T16:42:31.016Z,8.51
2023-02-24T16:44:57.967Z,8.50
2023-02-24T16:47:25.773Z,8.50
2023-02-24T16:49:57.562Z,8.39
2023-02-24T16:52:24.946Z,8.45
2023-02-24T16:54:52.149Z,8.44
2023-02-24T16:57:19.122Z,8.31
2023-02-24T16:59:46.482Z,8.33
2023-02-24T17:02:22.640Z,8.29
2023-02-24T17:04:49.738Z,8.33
2023-02-24T17:07:19.015Z,8.33
2023-02-24T17:09:45.950Z,8.29
2023-02-24T17:12:14.760Z,8.24
2023-02-24T17:14:41.698Z,8.25
2023-02-24T17:17:08.757Z,8.23
2023-02-24T17:19:35.763Z,8.24
2023-02-24T17:22:02.798Z,8.15
2023-02-24T17:24:29.924Z,8.15
2023-02-24T17:27:01.078Z,8.17
2023-02-24T17:29:28.340Z,8.09
2023-02-24T17:31:55.457Z,8.15
2023-02-24T17:34:24.205Z,8.08
2023-02-24T17:36:51.274Z,8.06
2023-02-24T17:39:18.324Z,8.08
2023-02-24T17:41:45.400Z,8.03
2023-02-24T17:44:12.421Z,7.97
2023-02-24T17:46:39.502Z,7.94
2023-02-24T17:49:06.548Z,8.05
2023-02-24T17:51:33.724Z,7.95
2023-02-24T17:54:00.690Z,7.91
2023-02-24T17:56:27.725Z,7.94
2023-02-24T17:58:58.672Z,7.92
2023-02-24T18:01:26.302Z,7.91
2023-02-24T18:03:55.674Z,7.95
2023-02-24T18:06:23.263Z,7.93
2023-02-24T18:08:50.805Z,7.91
2023-02-24T18:11:19.785Z,7.88
2023-02-24T18:13:48.602Z,7.84
2023-02-24T18:16:16.337Z,7.86
2023-02-24T18:18:43.400Z,7.81
2023-02-24T18:21:10.389Z,7.83
2023-02-24T18:23:41.008Z,7.82
2023-02-24T18:26:11.103Z,7.75
2023-02-24T18:28:38.810Z,7.77
2023-02-24T18:31:18.796Z,7.80
2023-02-24T18:33:46.330Z,7.74
2023-02-24T18:36:14.954Z,7.76
2023-02-24T18:38:41.872Z,7.70
2023-02-24T18:41:12.532Z,7.61
2023-02-24T18:43:39.766Z,7.64
2023-02-24T18:46:11.941Z,7.56
2023-02-24T18:48:40.643Z,7.48
2023-02-24T18:51:08.299Z,7.45
2023-02-24T18:53:38.292Z,7.52
2023-02-24T18:56:09.449Z,7.45
2023-02-24T18:58:37.211Z,7.46
2023-02-24T19:01:21.425Z,7.45
2023-02-24T19:03:51.017Z,7.44
2023-02-24T19:06:20.754Z,7.48
2023-02-24T19:08:54.571Z,7.45
2023-02-24T19:11:21.717Z,7.38
2023-02-24T19:13:48.747Z,7.42
2023-02-24T19:16:17.821Z,7.40
2023-02-24T19:18:45.224Z,7.41
2023-02-24T19:21:13.932Z,7.34
2023-02-24T19:23:41.030Z,7.41
2023-02-24T19:26:23.580Z,7.39
2023-02-24T19:28:51.614Z,7.36
2023-02-24T19:31:23.730Z,7.34
2023-02-24T19:34:01.035Z,7.29
2023-02-24T19:36:30.761Z,7.26
2023-02-24T19:38:57.788Z,7.28
2023-02-24T19:41:25.021Z,7.25
2023-02-24T19:43:52.284Z,7.24
2023-02-24T19:46:19.711Z,7.27
2023-02-24T19:48:47.061Z,7.28
2023-02-24T19:51:18.571Z,7.28
2023-02-24T19:53:45.877Z,7.25
2023-02-24T19:56:13.616Z,7.26
2023-02-24T19:58:40.617Z,7.26
2023-02-24T20:01:13.803Z,7.25
2023-02-24T20:03:42.648Z,7.25
2023-02-24T20:06:35.751Z,7.22
2023-02-24T20:09:15.381Z,7.17
2023-02-24T20:11:44.333Z,7.21
2023-02-24T20:14:12.855Z,7.14
2023-02-24T20:16:42.255Z,7.18
2023-02-24T20:19:11.488Z,7.15
2023-02-24T20:21:39.269Z,7.11
2023-02-24T20:24:12.624Z,7.06
2023-02-24T20:26:43.501Z,7.05
2023-02-24T20:29:11.401Z,7.09
2023-02-24T20:31:39.871Z,7.03
2023-02-24T20:34:09.252Z,6.98
2023-02-24T20:36:36.829Z,6.98
2023-02-24T20:39:06.536Z,6.92
2023-02-24T20:41:34.552Z,6.79
2023-02-24T20:44:01.491Z,6.48
2023-02-24T20:46:31.457Z,6.30
2023-02-24T20:49:02.215Z,6.17
2023-02-24T20:51:31.169Z,6.14
2023-02-24T20:53:58.864Z,6.08
2023-02-24T20:56:33.945Z,6.02
2023-02-24T20:59:04.665Z,5.87
2023-02-24T21:01:32.940Z,5.90
2023-02-24T21:04:01.254Z,5.88
2023-02-24T21:06:29.309Z,5.93
2023-02-24T21:08:57.619Z,5.86
2023-02-24T21:11:25.856Z,5.86
2023-02-24T21:13:53.645Z,5.61
2023-02-24T21:16:21.973Z,5.55
2023-02-24T21:18:51.482Z,5.39
2023-02-24T21:21:20.196Z,5.20
2023-02-24T21:23:47.945Z,5.15
2023-02-24T21:26:15.274Z,4.99
2023-02-24T21:28:42.377Z,4.96
2023-02-24T21:31:20.425Z,4.98
2023-02-24T21:33:52.199Z,5.00
2023-02-24T21:36:21.444Z,4.89
2023-02-24T21:38:49.274Z,4.81
2023-02-24T21:41:19.369Z,4.65
2023-02-24T21:43:47.098Z,4.74
2023-02-24T21:46:15.926Z,4.81
2023-02-24T21:48:43.399Z,4.76
2023-02-24T21:51:12.646Z,4.65
2023-02-24T21:53:43.462Z,4.67
2023-02-24T21:56:20.107Z,4.59
2023-02-24T21:58:56.489Z,4.59
2023-02-24T22:01:28.665Z,4.58
2023-02-24T22:03:59.429Z,4.54
2023-02-24T22:06:31.022Z,4.50
2023-02-24T22:08:58.899Z,4.57
2023-02-24T22:11:26.218Z,4.49
2023-02-24T22:13:53.167Z,4.51
2023-02-24T22:16:23.806Z,4.41
2023-02-24T22:18:53.331Z,4.53
2023-02-24T22:21:24.357Z,4.53
2023-02-24T22:23:54.088Z,4.53
2023-02-24T22:26:23.578Z,4.47
2023-02-24T22:28:51.462Z,4.43
2023-02-24T22:31:22.400Z,4.41
2023-02-24T22:33:50.181Z,4.35
2023-02-24T22:36:20.508Z,4.36
2023-02-24T22:38:48.285Z,4.32
2023-02-24T22:41:18.826Z,4.19
2023-02-24T22:43:46.627Z,4.28
2023-02-24T22:46:17.857Z,4.21
2023-02-24T22:48:45.539Z,4.24
2023-02-24T22:51:13.836Z,4.22
2023-02-24T22:53:43.353Z,4.24
2023-02-24T22:56:15.666Z,4.21
2023-02-24T22:58:43.487Z,4.27
2023-02-24T23:01:17.334Z,4.21
2023-02-24T23:03:46.104Z,4.33
2023-02-24T23:06:17.254Z,4.35
2023-02-24T23:08:47.357Z,4.27
2023-02-24T23:11:21.791Z,4.31
2023-02-24T23:13:50.962Z,4.19
2023-02-24T23:16:24.601Z,4.19
2023-02-24T23:18:53.869Z,4.25
2023-02-24T23:21:53.848Z,4.22
2023-02-24T23:24:22.144Z,4.18
2023-02-24T23:26:53.841Z,4.29
2023-02-24T23:29:22.474Z,4.18
2023-02-24T23:31:51.189Z,4.16
2023-02-24T23:34:18.865Z,4.21
2023-02-24T23:36:47.855Z,4.23
2023-02-24T23:39:17.316Z,4.16
2023-02-24T23:41:44.851Z,4.17
2023-02-24T23:44:12.678Z,4.21
2023-02-24T23:46:41.660Z,4.16
2023-02-24T23:49:08.764Z,4.24
2023-02-24T23:51:47.475Z,4.16
2023-02-24T23:54:19.160Z,4.16
2023-02-24T23:56:46.448Z,4.14
2023-02-24T23:59:13.681Z,4.19
